sensor_id;sensor_type;location;lat;lon;timestamp;pressure;altitude;pressure_sealevel;temperature;humidity
19797;BME280;10058;57.654;12.044;2024-03-25T00:00:10;99248.81;;;6.97;100.00
19797;BME280;10058;57.654;12.044;2024-03-25T00:02:37;99249.97;;;7.15;100.00
19797;BME280;10058;57.654;12.044;2024-03-25T00:05:02;99253.00;;;6.86;100.00
19797;BME280;10058;57.654;12.044;2024-03-25T00:07:27;99253.13;;;6.92;100.00
19797;BME280;10058;57.654;12.044;2024-03-25T00:09:52;99256.50;;;6.87;100.00
19797;BME280;10058;57.654;12.044;2024-03-25T00:12:20;99250.44;;;6.89;100.00
19797;BME280;10058;57.654;12.044;2024-03-25T00:14:45;99253.16;;;6.95;100.00
19797;BME280;10058;57.654;12.044;2024-03-25T00:17:10;99254.97;;;6.99;100.00
19797;BME280;10058;57.654;12.044;2024-03-25T00:19:36;99257.28;;;6.81;100.00
19797;BME280;10058;57.654;12.044;2024-03-25T00:22:01;99264.16;;;6.73;100.00
19797;BME280;10058;57.654;12.044;2024-03-25T00:24:26;99263.78;;;6.55;100.00
19797;BME280;10058;57.654;12.044;2024-03-25T00:26:51;99271.72;;;6.58;100.00
19797;BME280;10058;57.654;12.044;2024-03-25T00:29:17;99281.13;;;6.47;100.00
19797;BME280;10058;57.654;12.044;2024-03-25T00:31:42;99278.00;;;6.66;100.00
19797;BME280;10058;57.654;12.044;2024-03-25T00:34:07;99282.25;;;6.61;100.00
19797;BME280;10058;57.654;12.044;2024-03-25T00:36:32;99281.47;;;6.65;100.00
19797;BME280;10058;57.654;12.044;2024-03-25T00:38:58;99288.28;;;6.54;100.00
19797;BME280;10058;57.654;12.044;2024-03-25T00:41:24;99283.19;;;6.63;100.00
19797;BME280;10058;57.654;12.044;2024-03-25T00:43:49;99294.44;;;6.56;100.00
19797;BME280;10058;57.654;12.044;2024-03-25T00:46:14;99296.69;;;6.38;100.00
19797;BME280;10058;57.654;12.044;2024-03-25T00:48:39;99297.00;;;6.53;100.00
19797;BME280;10058;57.654;12.044;2024-03-25T00:51:06;99299.53;;;6.48;100.00
19797;BME280;10058;57.654;12.044;2024-03-25T00:53:32;99300.16;;;6.37;100.00
19797;BME280;10058;57.654;12.044;2024-03-25T00:55:57;99304.53;;;6.36;100.00
19797;BME280;10058;57.654;12.044;2024-03-25T00:58:22;99298.47;;;6.39;100.00
19797;BME280;10058;57.654;12.044;2024-03-25T01:00:47;99303.72;;;6.39;100.00
19797;BME280;10058;57.654;12.044;2024-03-25T01:03:12;99301.56;;;6.19;100.00
19797;BME280;10058;57.654;12.044;2024-03-25T01:05:37;99301.25;;;6.48;100.00
19797;BME280;10058;57.654;12.044;2024-03-25T01:08:03;99297.84;;;6.52;100.00
19797;BME280;10058;57.654;12.044;2024-03-25T01:10:28;99297.00;;;6.53;100.00
19797;BME280;10058;57.654;12.044;2024-03-25T01:12:53;99296.88;;;6.47;100.00
19797;BME280;10058;57.654;12.044;2024-03-25T01:15:19;99300.53;;;6.55;100.00
19797;BME280;10058;57.654;12.044;2024-03-25T01:17:44;99301.94;;;6.38;100.00
19797;BME280;10058;57.654;12.044;2024-03-25T01:20:09;99308.88;;;6.36;100.00
19797;BME280;10058;57.654;12.044;2024-03-25T01:22:35;99307.13;;;6.35;100.00
19797;BME280;10058;57.654;12.044;2024-03-25T01:25:00;99312.44;;;6.38;100.00
19797;BME280;10058;57.654;12.044;2024-03-25T01:27:25;99304.84;;;6.51;100.00
19797;BME280;10058;57.654;12.044;2024-03-25T01:29:50;99310.59;;;6.34;100.00
19797;BME280;10058;57.654;12.044;2024-03-25T01:32:15;99312.16;;;6.25;100.00
19797;BME280;10058;57.654;12.044;2024-03-25T01:34:40;99311.47;;;6.34;100.00
19797;BME280;10058;57.654;12.044;2024-03-25T01:37:06;99314.75;;;6.22;100.00
19797;BME280;10058;57.654;12.044;2024-03-25T01:39:31;99312.94;;;6.20;100.00
19797;BME280;10058;57.654;12.044;2024-03-25T01:41:56;99319.41;;;5.97;100.00
19797;BME280;10058;57.654;12.044;2024-03-25T01:44:21;99310.34;;;6.21;100.00
19797;BME280;10058;57.654;12.044;2024-03-25T01:46:46;99308.59;;;6.23;100.00
19797;BME280;10058;57.654;12.044;2024-03-25T01:49:12;99307.22;;;5.99;100.00
19797;BME280;10058;57.654;12.044;2024-03-25T01:51:37;99311.59;;;6.00;100.00
19797;BME280;10058;57.654;12.044;2024-03-25T01:54:04;99309.28;;;6.13;100.00
19797;BME280;10058;57.654;12.044;2024-03-25T01:56:30;99306.50;;;6.07;100.00
19797;BME280;10058;57.654;12.044;2024-03-25T01:58:56;99314.53;;;6.13;100.00
19797;BME280;10058;57.654;12.044;2024-03-25T02:01:21;99308.50;;;6.17;100.00
19797;BME280;10058;57.654;12.044;2024-03-25T02:03:47;99309.94;;;6.03;100.00
19797;BME280;10058;57.654;12.044;2024-03-25T02:06:13;99306.81;;;6.19;100.00
19797;BME280;10058;57.654;12.044;2024-03-25T02:08:40;99315.44;;;6.15;100.00
19797;BME280;10058;57.654;12.044;2024-03-25T02:11:05;99319.50;;;6.01;100.00
19797;BME280;10058;57.654;12.044;2024-03-25T02:13:31;99323.31;;;6.15;100.00
19797;BME280;10058;57.654;12.044;2024-03-25T02:15:56;99314.06;;;6.33;100.00
19797;BME280;10058;57.654;12.044;2024-03-25T02:18:21;99310.84;;;6.46;100.00
19797;BME280;10058;57.654;12.044;2024-03-25T02:20:47;99320.06;;;6.27;100.00
19797;BME280;10058;57.654;12.044;2024-03-25T02:23:12;99310.53;;;6.31;100.00
19797;BME280;10058;57.654;12.044;2024-03-25T02:25:38;99313.00;;;6.24;100.00
19797;BME280;10058;57.654;12.044;2024-03-25T02:28:03;99316.09;;;6.46;100.00
19797;BME280;10058;57.654;12.044;2024-03-25T02:30:28;99315.47;;;6.17;100.00
19797;BME280;10058;57.654;12.044;2024-03-25T02:32:54;99318.31;;;6.27;100.00
19797;BME280;10058;57.654;12.044;2024-03-25T02:35:19;99321.25;;;6.43;100.00
19797;BME280;10058;57.654;12.044;2024-03-25T02:37:46;99327.00;;;6.25;100.00
19797;BME280;10058;57.654;12.044;2024-03-25T02:40:11;99331.19;;;6.15;100.00
19797;BME280;10058;57.654;12.044;2024-03-25T02:42:36;99338.34;;;6.22;100.00
19797;BME280;10058;57.654;12.044;2024-03-25T02:45:02;99340.16;;;6.26;100.00
19797;BME280;10058;57.654;12.044;2024-03-25T02:47:27;99336.63;;;6.24;100.00
19797;BME280;10058;57.654;12.044;2024-03-25T02:49:52;99348.44;;;6.04;100.00
19797;BME280;10058;57.654;12.044;2024-03-25T02:52:18;99348.44;;;6.04;100.00
19797;BME280;10058;57.654;12.044;2024-03-25T02:54:43;99346.50;;;5.97;100.00
19797;BME280;10058;57.654;12.044;2024-03-25T02:57:09;99349.75;;;5.87;100.00
19797;BME280;10058;57.654;12.044;2024-03-25T02:59:34;99349.22;;;5.66;100.00
19797;BME280;10058;57.654;12.044;2024-03-25T03:01:59;99349.91;;;5.93;100.00
19797;BME280;10058;57.654;12.044;2024-03-25T03:04:24;99350.59;;;6.23;100.00
19797;BME280;10058;57.654;12.044;2024-03-25T03:06:49;99357.06;;;6.00;100.00
19797;BME280;10058;57.654;12.044;2024-03-25T03:09:14;99358.00;;;6.02;100.00
19797;BME280;10058;57.654;12.044;2024-03-25T03:11:40;99360.22;;;6.23;100.00
19797;BME280;10058;57.654;12.044;2024-03-25T03:14:05;99357.75;;;6.31;100.00
19797;BME280;10058;57.654;12.044;2024-03-25T03:16:31;99357.56;;;6.21;100.00
19797;BME280;10058;57.654;12.044;2024-03-25T03:18:56;99359.13;;;6.13;100.00
19797;BME280;10058;57.654;12.044;2024-03-25T03:21:21;99366.28;;;6.20;100.00
19797;BME280;10058;57.654;12.044;2024-03-25T03:23:46;99371.13;;;6.02;100.00
19797;BME280;10058;57.654;12.044;2024-03-25T03:26:12;99364.81;;;5.96;100.00
19797;BME280;10058;57.654;12.044;2024-03-25T03:28:37;99369.88;;;6.25;100.00
19797;BME280;10058;57.654;12.044;2024-03-25T03:31:03;99359.53;;;6.32;100.00
19797;BME280;10058;57.654;12.044;2024-03-25T03:33:28;99370.38;;;6.09;100.00
19797;BME280;10058;57.654;12.044;2024-03-25T03:35:53;99371.41;;;6.16;100.00
19797;BME280;10058;57.654;12.044;2024-03-25T03:38:20;99379.75;;;5.98;100.00
19797;BME280;10058;57.654;12.044;2024-03-25T03:40:55;99379.66;;;5.95;100.00
19797;BME280;10058;57.654;12.044;2024-03-25T03:43:20;99375.09;;;6.22;100.00
19797;BME280;10058;57.654;12.044;2024-03-25T03:45:46;99376.63;;;6.14;100.00
19797;BME280;10058;57.654;12.044;2024-03-25T03:48:11;99372.28;;;6.15;100.00
19797;BME280;10058;57.654;12.044;2024-03-25T03:50:36;99369.41;;;6.04;100.00
19797;BME280;10058;57.654;12.044;2024-03-25T03:53:01;99371.38;;;6.14;100.00
19797;BME280;10058;57.654;12.044;2024-03-25T03:55:26;99369.75;;;6.19;100.00
19797;BME280;10058;57.654;12.044;2024-03-25T03:57:51;99376.09;;;6.29;100.00
19797;BME280;10058;57.654;12.044;2024-03-25T04:00:17;99381.88;;;6.14;100.00
19797;BME280;10058;57.654;12.044;2024-03-25T04:02:43;99370.09;;;6.35;100.00
19797;BME280;10058;57.654;12.044;2024-03-25T04:05:08;99378.75;;;6.31;100.00
19797;BME280;10058;57.654;12.044;2024-03-25T04:07:33;99389.03;;;6.21;100.00
19797;BME280;10058;57.654;12.044;2024-03-25T04:09:58;99384.00;;;5.93;100.00
19797;BME280;10058;57.654;12.044;2024-03-25T04:12:24;99386.97;;;6.08;100.00
19797;BME280;10058;57.654;12.044;2024-03-25T04:14:50;99388.66;;;6.06;100.00
19797;BME280;10058;57.654;12.044;2024-03-25T04:17:19;99390.94;;;6.28;100.00
19797;BME280;10058;57.654;12.044;2024-03-25T04:19:45;99393.88;;;6.03;100.00
19797;BME280;10058;57.654;12.044;2024-03-25T04:22:10;99394.06;;;6.12;100.00
19797;BME280;10058;57.654;12.044;2024-03-25T04:24:36;99394.00;;;6.09;100.00
19797;BME280;10058;57.654;12.044;2024-03-25T04:27:01;99400.03;;;6.05;100.00
19797;BME280;10058;57.654;12.044;2024-03-25T04:29:26;99407.91;;;6.05;100.00
19797;BME280;10058;57.654;12.044;2024-03-25T04:31:51;99406.34;;;6.13;100.00
19797;BME280;10058;57.654;12.044;2024-03-25T04:34:16;99412.91;;;5.96;100.00
19797;BME280;10058;57.654;12.044;2024-03-25T04:36:41;99409.03;;;6.16;100.00
19797;BME280;10058;57.654;12.044;2024-03-25T04:39:07;99411.84;;;6.25;100.00
19797;BME280;10058;57.654;12.044;2024-03-25T04:41:33;99414.38;;;6.21;100.00
19797;BME280;10058;57.654;12.044;2024-03-25T04:43:58;99417.09;;;6.25;100.00
19797;BME280;10058;57.654;12.044;2024-03-25T04:46:23;99416.53;;;6.39;100.00
19797;BME280;10058;57.654;12.044;2024-03-25T04:48:48;99420.94;;;6.40;100.00
19797;BME280;10058;57.654;12.044;2024-03-25T04:51:14;99416.50;;;6.37;100.00
19797;BME280;10058;57.654;12.044;2024-03-25T04:53:39;99415.50;;;6.32;100.00
19797;BME280;10058;57.654;12.044;2024-03-25T04:56:04;99411.84;;;6.25;100.00
19797;BME280;10058;57.654;12.044;2024-03-25T04:58:29;99422.00;;;6.10;100.00
19797;BME280;10058;57.654;12.044;2024-03-25T05:00:54;99424.00;;;6.20;100.00
19797;BME280;10058;57.654;12.044;2024-03-25T05:03:20;99427.94;;;6.41;100.00
19797;BME280;10058;57.654;12.044;2024-03-25T05:05:45;99427.94;;;6.39;100.00
19797;BME280;10058;57.654;12.044;2024-03-25T05:08:10;99446.69;;;6.18;100.00
19797;BME280;10058;57.654;12.044;2024-03-25T05:10:35;99443.53;;;5.97;100.00
19797;BME280;10058;57.654;12.044;2024-03-25T05:13:00;99443.50;;;5.96;100.00
19797;BME280;10058;57.654;12.044;2024-03-25T05:15:25;99442.59;;;5.95;100.00
19797;BME280;10058;57.654;12.044;2024-03-25T05:17:51;99455.91;;;6.03;100.00
19797;BME280;10058;57.654;12.044;2024-03-25T05:20:16;99454.47;;;6.15;100.00
19797;BME280;10058;57.654;12.044;2024-03-25T05:22:41;99460.66;;;6.17;100.00
19797;BME280;10058;57.654;12.044;2024-03-25T05:25:06;99455.31;;;6.14;100.00
19797;BME280;10058;57.654;12.044;2024-03-25T05:27:32;99457.28;;;6.24;100.00
19797;BME280;10058;57.654;12.044;2024-03-25T05:29:57;99455.47;;;6.20;100.00
19797;BME280;10058;57.654;12.044;2024-03-25T05:32:23;99455.13;;;6.05;100.00
19797;BME280;10058;57.654;12.044;2024-03-25T05:34:48;99463.59;;;5.95;100.00
19797;BME280;10058;57.654;12.044;2024-03-25T05:37:13;99466.81;;;5.85;100.00
19797;BME280;10058;57.654;12.044;2024-03-25T05:39:38;99472.94;;;5.85;100.00
19797;BME280;10058;57.654;12.044;2024-03-25T05:42:03;99470.00;;;6.08;100.00
19797;BME280;10058;57.654;12.044;2024-03-25T05:44:29;99469.06;;;6.04;100.00
19797;BME280;10058;57.654;12.044;2024-03-25T05:46:54;99468.44;;;6.14;100.00
19797;BME280;10058;57.654;12.044;2024-03-25T05:49:19;99470.81;;;5.72;100.00
19797;BME280;10058;57.654;12.044;2024-03-25T05:51:44;99470.91;;;6.08;100.00
19797;BME280;10058;57.654;12.044;2024-03-25T05:54:09;99476.56;;;5.90;100.00
19797;BME280;10058;57.654;12.044;2024-03-25T05:56:35;99478.00;;;6.12;100.00
19797;BME280;10058;57.654;12.044;2024-03-25T05:59:00;99485.41;;;5.94;100.00
19797;BME280;10058;57.654;12.044;2024-03-25T06:01:26;99486.09;;;5.87;100.00
19797;BME280;10058;57.654;12.044;2024-03-25T06:03:51;99488.13;;;5.97;100.00
19797;BME280;10058;57.654;12.044;2024-03-25T06:06:16;99489.72;;;5.92;100.00
19797;BME280;10058;57.654;12.044;2024-03-25T06:08:42;99491.88;;;6.08;100.00
19797;BME280;10058;57.654;12.044;2024-03-25T06:11:07;99495.81;;;6.25;100.00
19797;BME280;10058;57.654;12.044;2024-03-25T06:13:32;99494.34;;;6.01;100.00
19797;BME280;10058;57.654;12.044;2024-03-25T06:15:58;99496.19;;;6.05;100.00
19797;BME280;10058;57.654;12.044;2024-03-25T06:18:23;99493.38;;;5.97;100.00
19797;BME280;10058;57.654;12.044;2024-03-25T06:20:48;99499.00;;;6.12;100.00
19797;BME280;10058;57.654;12.044;2024-03-25T06:23:23;99497.75;;;6.33;100.00
19797;BME280;10058;57.654;12.044;2024-03-25T06:25:49;99495.75;;;6.22;100.00
19797;BME280;10058;57.654;12.044;2024-03-25T06:28:14;99507.16;;;5.90;100.00
19797;BME280;10058;57.654;12.044;2024-03-25T06:30:39;99492.94;;;5.82;100.00
19797;BME280;10058;57.654;12.044;2024-03-25T06:33:23;99505.19;;;5.83;100.00
19797;BME280;10058;57.654;12.044;2024-03-25T06:36:07;99504.06;;;6.06;100.00
19797;BME280;10058;57.654;12.044;2024-03-25T06:38:32;99503.84;;;6.32;100.00
19797;BME280;10058;57.654;12.044;2024-03-25T06:40:58;99504.31;;;6.15;100.00
19797;BME280;10058;57.654;12.044;2024-03-25T06:43:23;99512.47;;;6.27;100.00
19797;BME280;10058;57.654;12.044;2024-03-25T06:45:49;99512.41;;;6.24;100.00
19797;BME280;10058;57.654;12.044;2024-03-25T06:48:14;99519.38;;;6.24;100.00
19797;BME280;10058;57.654;12.044;2024-03-25T06:50:39;99521.84;;;6.16;100.00
19797;BME280;10058;57.654;12.044;2024-03-25T06:53:04;99515.47;;;6.43;100.00
19797;BME280;10058;57.654;12.044;2024-03-25T06:55:30;99517.66;;;6.62;100.00
19797;BME280;10058;57.654;12.044;2024-03-25T06:57:55;99513.22;;;6.59;100.00
19797;BME280;10058;57.654;12.044;2024-03-25T07:00:20;99517.97;;;6.76;100.00
19797;BME280;10058;57.654;12.044;2024-03-25T07:02:47;99519.69;;;6.72;100.00
19797;BME280;10058;57.654;12.044;2024-03-25T07:05:12;99525.13;;;6.44;100.00
19797;BME280;10058;57.654;12.044;2024-03-25T07:07:37;99531.38;;;6.49;100.00
19797;BME280;10058;57.654;12.044;2024-03-25T07:10:02;99531.22;;;6.43;100.00
19797;BME280;10058;57.654;12.044;2024-03-25T07:12:28;99530.19;;;6.36;100.00
19797;BME280;10058;57.654;12.044;2024-03-25T07:14:53;99536.25;;;6.34;100.00
19797;BME280;10058;57.654;12.044;2024-03-25T07:17:19;99531.22;;;6.43;100.00
19797;BME280;10058;57.654;12.044;2024-03-25T07:19:44;99537.06;;;6.67;100.00
19797;BME280;10058;57.654;12.044;2024-03-25T07:22:10;99531.44;;;6.52;100.00
19797;BME280;10058;57.654;12.044;2024-03-25T07:24:35;99537.06;;;6.67;100.00
19797;BME280;10058;57.654;12.044;2024-03-25T07:27:00;99545.78;;;6.66;100.00
19797;BME280;10058;57.654;12.044;2024-03-25T07:29:25;99538.91;;;6.71;100.00
19797;BME280;10058;57.654;12.044;2024-03-25T07:31:50;99543.00;;;6.60;100.00
19797;BME280;10058;57.654;12.044;2024-03-25T07:34:16;99542.81;;;6.88;100.00
19797;BME280;10058;57.654;12.044;2024-03-25T07:36:41;99544.16;;;6.71;100.00
19797;BME280;10058;57.654;12.044;2024-03-25T07:39:07;99540.13;;;6.87;100.00
19797;BME280;10058;57.654;12.044;2024-03-25T07:41:35;99545.47;;;6.90;100.00
19797;BME280;10058;57.654;12.044;2024-03-25T07:44:00;99561.78;;;6.39;100.00
19797;BME280;10058;57.654;12.044;2024-03-25T07:46:26;99557.50;;;6.44;100.00
19797;BME280;10058;57.654;12.044;2024-03-25T07:48:51;99564.84;;;6.57;100.00
19797;BME280;10058;57.654;12.044;2024-03-25T07:51:16;99552.97;;;6.73;100.00
19797;BME280;10058;57.654;12.044;2024-03-25T07:53:42;99556.16;;;6.99;100.00
19797;BME280;10058;57.654;12.044;2024-03-25T07:56:07;99556.63;;;6.81;100.00
19797;BME280;10058;57.654;12.044;2024-03-25T07:58:32;99565.16;;;6.71;100.00
19797;BME280;10058;57.654;12.044;2024-03-25T08:00:58;99567.06;;;6.78;100.00
19797;BME280;10058;57.654;12.044;2024-03-25T08:03:23;99566.16;;;6.78;100.00
19797;BME280;10058;57.654;12.044;2024-03-25T08:05:50;99571.19;;;7.05;100.00
19797;BME280;10058;57.654;12.044;2024-03-25T08:08:15;99575.75;;;6.74;100.00
19797;BME280;10058;57.654;12.044;2024-03-25T08:10:40;99581.00;;;6.74;100.00
19797;BME280;10058;57.654;12.044;2024-03-25T08:13:05;99580.41;;;7.25;100.00
19797;BME280;10058;57.654;12.044;2024-03-25T08:15:30;99582.31;;;6.94;100.00
19797;BME280;10058;57.654;12.044;2024-03-25T08:17:56;99587.13;;;6.75;100.00
19797;BME280;10058;57.654;12.044;2024-03-25T08:20:21;99582.97;;;6.84;100.00
19797;BME280;10058;57.654;12.044;2024-03-25T08:22:46;99582.28;;;7.32;100.00
19797;BME280;10058;57.654;12.044;2024-03-25T08:25:13;99586.53;;;7.67;100.00
19797;BME280;10058;57.654;12.044;2024-03-25T08:27:38;99580.91;;;7.49;100.00
19797;BME280;10058;57.654;12.044;2024-03-25T08:30:03;99583.53;;;7.49;100.00
19797;BME280;10058;57.654;12.044;2024-03-25T08:32:29;99590.00;;;7.66;100.00
19797;BME280;10058;57.654;12.044;2024-03-25T08:34:54;99591.34;;;7.46;100.00
19797;BME280;10058;57.654;12.044;2024-03-25T08:37:19;99583.13;;;7.72;100.00
19797;BME280;10058;57.654;12.044;2024-03-25T08:39:44;99577.66;;;7.61;100.00
19797;BME280;10058;57.654;12.044;2024-03-25T08:42:10;99580.50;;;7.73;100.00
19797;BME280;10058;57.654;12.044;2024-03-25T08:44:35;99584.88;;;7.73;100.00
19797;BME280;10058;57.654;12.044;2024-03-25T08:47:00;99586.13;;;7.91;100.00
19797;BME280;10058;57.654;12.044;2024-03-25T08:49:25;99572.16;;;7.94;100.00
19797;BME280;10058;57.654;12.044;2024-03-25T08:51:51;99578.53;;;8.07;100.00
19797;BME280;10058;57.654;12.044;2024-03-25T08:54:16;99569.94;;;8.18;100.00
19797;BME280;10058;57.654;12.044;2024-03-25T08:56:42;99577.06;;;8.22;100.00
19797;BME280;10058;57.654;12.044;2024-03-25T08:59:07;99569.13;;;8.21;100.00
19797;BME280;10058;57.654;12.044;2024-03-25T09:01:34;99573.22;;;8.53;100.00
19797;BME280;10058;57.654;12.044;2024-03-25T09:03:59;99570.84;;;8.70;100.00
19797;BME280;10058;57.654;12.044;2024-03-25T09:06:24;99572.41;;;8.56;100.00
19797;BME280;10058;57.654;12.044;2024-03-25T09:08:50;99569.53;;;8.96;100.00
19797;BME280;10058;57.654;12.044;2024-03-25T09:11:33;99562.50;;;9.63;100.00
19797;BME280;10058;57.654;12.044;2024-03-25T09:13:59;99562.09;;;9.30;100.00
19797;BME280;10058;57.654;12.044;2024-03-25T09:16:24;99560.22;;;9.23;100.00
19797;BME280;10058;57.654;12.044;2024-03-25T09:18:49;99573.34;;;9.20;100.00
19797;BME280;10058;57.654;12.044;2024-03-25T09:21:14;99574.84;;;8.99;100.00
19797;BME280;10058;57.654;12.044;2024-03-25T09:23:39;99563.31;;;8.93;100.00
19797;BME280;10058;57.654;12.044;2024-03-25T09:26:04;99564.56;;;9.18;100.00
19797;BME280;10058;57.654;12.044;2024-03-25T09:28:30;99559.19;;;9.12;100.00
19797;BME280;10058;57.654;12.044;2024-03-25T09:30:55;99559.28;;;9.18;100.00
19797;BME280;10058;57.654;12.044;2024-03-25T09:33:20;99571.06;;;8.82;100.00
19797;BME280;10058;57.654;12.044;2024-03-25T09:35:45;99571.66;;;8.64;100.00
19797;BME280;10058;57.654;12.044;2024-03-25T09:38:10;99569.19;;;8.75;100.00
19797;BME280;10058;57.654;12.044;2024-03-25T09:40:35;99573.81;;;8.35;100.00
19797;BME280;10058;57.654;12.044;2024-03-25T09:43:04;99570.44;;;8.43;100.00
19797;BME280;10058;57.654;12.044;2024-03-25T09:45:31;99569.56;;;8.99;100.00
19797;BME280;10058;57.654;12.044;2024-03-25T09:47:57;99572.81;;;8.83;100.00
19797;BME280;10058;57.654;12.044;2024-03-25T09:50:23;99564.97;;;8.86;100.00
19797;BME280;10058;57.654;12.044;2024-03-25T09:52:48;99565.25;;;9.06;100.00
19797;BME280;10058;57.654;12.044;2024-03-25T09:55:14;99570.84;;;8.70;100.00
19797;BME280;10058;57.654;12.044;2024-03-25T09:57:39;99569.59;;;9.02;100.00
19797;BME280;10058;57.654;12.044;2024-03-25T10:00:07;99567.59;;;8.86;100.00
19797;BME280;10058;57.654;12.044;2024-03-25T10:02:33;99570.66;;;9.14;100.00
19797;BME280;10058;57.654;12.044;2024-03-25T10:04:59;99577.00;;;8.69;100.00
19797;BME280;10058;57.654;12.044;2024-03-25T10:07:24;99581.56;;;8.79;100.00
19797;BME280;10058;57.654;12.044;2024-03-25T10:09:50;99583.34;;;8.80;100.00
19797;BME280;10058;57.654;12.044;2024-03-25T10:12:15;99585.59;;;9.15;100.00
19797;BME280;10058;57.654;12.044;2024-03-25T10:14:41;99587.88;;;8.37;100.00
19797;BME280;10058;57.654;12.044;2024-03-25T10:17:06;99596.03;;;8.53;100.00
19797;BME280;10058;57.654;12.044;2024-03-25T10:19:32;99598.59;;;8.50;100.00
19797;BME280;10058;57.654;12.044;2024-03-25T10:22:01;99590.16;;;8.69;100.00
19797;BME280;10058;57.654;12.044;2024-03-25T10:24:26;99591.88;;;8.67;100.00
19797;BME280;10058;57.654;12.044;2024-03-25T10:26:52;99593.66;;;8.68;100.00
19797;BME280;10058;57.654;12.044;2024-03-25T10:29:17;99597.38;;;8.79;100.00
19797;BME280;10058;57.654;12.044;2024-03-25T10:31:42;99594.28;;;9.07;100.00
19797;BME280;10058;57.654;12.044;2024-03-25T10:34:07;99592.16;;;8.82;100.00
19797;BME280;10058;57.654;12.044;2024-03-25T10:36:33;99590.56;;;8.95;100.00
19797;BME280;10058;57.654;12.044;2024-03-25T10:39:00;99597.72;;;9.03;100.00
19797;BME280;10058;57.654;12.044;2024-03-25T10:41:27;99596.34;;;9.30;100.00
19797;BME280;10058;57.654;12.044;2024-03-25T10:43:53;99595.69;;;9.45;100.00
19797;BME280;10058;57.654;12.044;2024-03-25T10:46:19;99592.00;;;9.32;100.00
19797;BME280;10058;57.654;12.044;2024-03-25T10:48:52;99597.09;;;9.21;100.00
19797;BME280;10058;57.654;12.044;2024-03-25T10:51:19;99600.53;;;9.14;100.00
19797;BME280;10058;57.654;12.044;2024-03-25T10:53:45;99602.19;;;9.07;100.00
19797;BME280;10058;57.654;12.044;2024-03-25T10:56:11;99607.16;;;9.48;100.00
19797;BME280;10058;57.654;12.044;2024-03-25T10:58:37;99603.09;;;9.74;100.00
19797;BME280;10058;57.654;12.044;2024-03-25T11:01:03;99613.00;;;9.94;100.00
19797;BME280;10058;57.654;12.044;2024-03-25T11:03:29;99602.59;;;10.09;100.00
19797;BME280;10058;57.654;12.044;2024-03-25T11:05:54;99608.94;;;9.49;100.00
19797;BME280;10058;57.654;12.044;2024-03-25T11:08:19;99612.47;;;9.51;100.00
19797;BME280;10058;57.654;12.044;2024-03-25T11:10:45;99603.72;;;9.57;100.00
19797;BME280;10058;57.654;12.044;2024-03-25T11:13:14;99602.91;;;9.61;100.00
19797;BME280;10058;57.654;12.044;2024-03-25T11:15:42;99606.66;;;9.78;100.00
19797;BME280;10058;57.654;12.044;2024-03-25T11:18:12;99596.38;;;10.05;100.00
19797;BME280;10058;57.654;12.044;2024-03-25T11:20:37;99595.34;;;9.87;100.00
19797;BME280;10058;57.654;12.044;2024-03-25T11:23:07;99600.41;;;9.71;100.00
19797;BME280;10058;57.654;12.044;2024-03-25T11:25:33;99598.63;;;9.70;100.00
19797;BME280;10058;57.654;12.044;2024-03-25T11:27:58;99596.38;;;10.05;100.00
19797;BME280;10058;57.654;12.044;2024-03-25T11:30:23;99604.28;;;10.01;100.00
19797;BME280;10058;57.654;12.044;2024-03-25T11:32:51;99598.13;;;10.02;100.00
19797;BME280;10058;57.654;12.044;2024-03-25T11:35:17;99605.13;;;9.97;100.00
19797;BME280;10058;57.654;12.044;2024-03-25T11:37:43;99603.28;;;9.91;100.00
19797;BME280;10058;57.654;12.044;2024-03-25T11:40:08;99604.25;;;9.98;100.00
19797;BME280;10058;57.654;12.044;2024-03-25T11:42:37;99609.44;;;9.92;100.00
19797;BME280;10058;57.654;12.044;2024-03-25T11:45:02;99606.59;;;9.73;100.00
19797;BME280;10058;57.654;12.044;2024-03-25T11:47:28;99603.09;;;9.74;100.00
19797;BME280;10058;57.654;12.044;2024-03-25T11:49:54;99605.00;;;9.88;100.00
19797;BME280;10058;57.654;12.044;2024-03-25T11:52:19;99602.72;;;9.46;100.00
19797;BME280;10058;57.654;12.044;2024-03-25T11:54:44;99607.25;;;9.57;100.00
19797;BME280;10058;57.654;12.044;2024-03-25T11:57:10;99604.97;;;9.85;100.00
19797;BME280;10058;57.654;12.044;2024-03-25T11:59:35;99612.59;;;9.60;100.00
19797;BME280;10058;57.654;12.044;2024-03-25T12:02:00;99602.06;;;9.63;100.00
19797;BME280;10058;57.654;12.044;2024-03-25T12:04:26;99594.94;;;9.56;100.00
19797;BME280;10058;57.654;12.044;2024-03-25T12:06:54;99607.13;;;9.45;100.00
19797;BME280;10058;57.654;12.044;2024-03-25T12:09:19;99605.34;;;9.44;100.00
19797;BME280;10058;57.654;12.044;2024-03-25T12:12:03;99603.88;;;9.67;100.00
19797;BME280;10058;57.654;12.044;2024-03-25T12:14:29;99610.06;;;9.68;100.00
19797;BME280;10058;57.654;12.044;2024-03-25T12:16:55;99594.66;;;10.07;100.00
19797;BME280;10058;57.654;12.044;2024-03-25T12:19:20;99594.63;;;10.03;100.00
19797;BME280;10058;57.654;12.044;2024-03-25T12:21:46;99596.38;;;10.02;100.00
19797;BME280;10058;57.654;12.044;2024-03-25T12:24:12;99601.59;;;9.98;100.00
19797;BME280;10058;57.654;12.044;2024-03-25T12:26:37;99590.44;;;10.23;100.00
19797;BME280;10058;57.654;12.044;2024-03-25T12:29:02;99593.66;;;9.95;100.00
19797;BME280;10058;57.654;12.044;2024-03-25T12:31:29;99584.09;;;10.07;100.00
19797;BME280;10058;57.654;12.044;2024-03-25T12:33:54;99592.38;;;10.36;100.00
19797;BME280;10058;57.654;12.044;2024-03-25T12:36:20;99594.50;;;10.83;100.00
19797;BME280;10058;57.654;12.044;2024-03-25T12:38:53;99587.38;;;10.70;100.00
19797;BME280;10058;57.654;12.044;2024-03-25T12:41:21;99597.69;;;10.42;100.00